Time;durP1;ratioP1;P1;durP2;ratioP2;P2;SDS_P1;SDS_P2;PMS_P1;PMS_P2;Temp;Humidity;BMP_temperature;BMP_pressure;BME280_temperature;BME280_humidity;BME280_pressure;Samples;Min_cycle;Max_cycle;Signal;HPM_P1;HPM_P2
2021/12/01 00:01:29;;;;;;;1.80;1.20;;;10.30;99.90;;;;;;5116141;28;20425;-82
2021/12/01 00:03:55;;;;;;;1.73;1.30;;;10.20;99.90;;;;;;5117240;28;20028;-83
2021/12/01 00:06:20;;;;;;;2.10;1.43;;;10.20;99.90;;;;;;5117238;28;20028;-82
2021/12/01 00:08:46;;;;;;;3.27;1.60;;;10.20;99.90;;;;;;5116098;28;20063;-81
2021/12/01 00:11:12;;;;;;;2.70;1.23;;;10.20;99.90;;;;;;5082077;28;20413;-82
2021/12/01 00:13:38;;;;;;;2.90;1.30;;;10.20;99.90;;;;;;5117358;28;20032;-83
2021/12/01 00:16:04;;;;;;;3.17;1.97;;;10.20;99.90;;;;;;5117058;28;20028;-82
2021/12/01 00:18:30;;;;;;;1.70;1.60;;;10.20;99.90;;;;;;5098767;28;20024;-83
2021/12/01 00:20:57;;;;;;;2.50;2.27;;;10.10;99.90;;;;;;5114627;28;20399;-82
2021/12/01 00:23:23;;;;;;;3.43;2.10;;;10.10;99.90;;;;;;5114731;28;20024;-82
2021/12/01 00:25:49;;;;;;;2.43;2.03;;;10.10;99.90;;;;;;5114623;28;20019;-82
2021/12/01 00:28:15;;;;;;;3.03;2.57;;;10.10;99.90;;;;;;5116553;28;20027;-80
2021/12/01 00:30:41;;;;;;;2.73;2.53;;;10.10;99.90;;;;;;5081108;28;20459;-80
2021/12/01 00:33:12;;;;;;;2.50;2.30;;;10.10;99.90;;;;;;5115551;28;20091;-82
2021/12/01 00:35:38;;;;;;;2.90;2.70;;;10.10;99.90;;;;;;5114997;28;20084;-81
2021/12/01 00:38:04;;;;;;;2.80;2.50;;;10.10;99.90;;;;;;5115136;28;20438;-83
2021/12/01 00:40:31;;;;;;;2.90;2.57;;;10.10;99.90;;;;;;5116244;28;20072;-83
2021/12/01 00:42:57;;;;;;;3.63;2.43;;;10.10;99.90;;;;;;5114609;28;20023;-82
2021/12/01 00:45:23;;;;;;;3.40;3.10;;;10.10;99.90;;;;;;5097367;28;20120;-83
2021/12/01 00:47:52;;;;;;;2.90;2.57;;;10.10;99.90;;;;;;5116370;28;20028;-80
2021/12/01 00:50:34;;;;;;;2.50;1.97;;;10.10;99.90;;;;;;5117128;28;20020;-83
2021/12/01 00:53:03;;;;;;;2.58;2.20;;;10.10;99.90;;;;;;5114576;28;20122;-83
2021/12/01 00:55:29;;;;;;;2.47;2.27;;;10.00;99.90;;;;;;5114737;28;20015;-83
2021/12/01 00:57:55;;;;;;;2.40;2.20;;;10.00;99.90;;;;;;5114506;28;20065;-82
2021/12/01 01:00:23;;;;;;;3.80;2.23;;;10.00;99.90;;;;;;5114204;28;20040;-83
2021/12/01 01:02:50;;;;;;;2.63;2.10;;;10.00;99.90;;;;;;5114081;28;20159;-83
2021/12/01 01:05:16;;;;;;;2.80;2.17;;;10.00;99.90;;;;;;5096665;28;20115;-81
2021/12/01 01:07:42;;;;;;;2.73;2.53;;;9.90;99.90;;;;;;5114105;28;20027;-83
2021/12/01 01:10:28;;;;;;;2.53;2.33;;;9.90;99.90;;;;;;5113946;28;20024;-82
2021/12/01 01:18:34;;;;;;;3.03;2.83;;;9.90;99.90;;;;;;5098962;28;20132;-84
2021/12/01 01:21:00;;;;;;;4.57;2.90;;;9.90;99.90;;;;;;5114546;28;20024;-80
2021/12/01 01:23:29;;;;;;;2.83;2.63;;;9.90;99.90;;;;;;5114239;28;20028;-83
2021/12/01 01:25:57;;;;;;;2.83;2.60;;;9.90;99.90;;;;;;5114012;28;20032;-83
2021/12/01 01:28:23;;;;;;;4.63;3.00;;;9.90;99.90;;;;;;5113728;28;20437;-82
2021/12/01 01:30:49;;;;;;;2.80;2.53;;;9.90;99.90;;;;;;5115065;28;20028;-82
2021/12/01 01:33:15;;;;;;;4.13;2.57;;;9.90;99.90;;;;;;5118161;28;20447;-81
2021/12/01 01:35:40;;;;;;;2.73;2.53;;;9.90;99.90;;;;;;5101533;28;20413;-81
2021/12/01 01:38:06;;;;;;;2.83;2.63;;;9.90;99.90;;;;;;5117919;28;20109;-81
2021/12/01 01:40:32;;;;;;;3.93;3.03;;;9.90;99.90;;;;;;5117743;28;20452;-82
2021/12/01 01:42:59;;;;;;;3.67;3.17;;;9.90;99.90;;;;;;5117839;28;20024;-79
2021/12/01 01:45:24;;;;;;;3.03;2.77;;;9.90;99.90;;;;;;5117206;28;20092;-82
2021/12/01 01:48:05;;;;;;;3.67;2.50;;;9.90;99.90;;;;;;5118327;28;20107;-82
2021/12/01 01:50:36;;;;;;;3.37;2.67;;;9.90;99.90;;;;;;5118517;28;20020;-83
2021/12/01 01:53:17;;;;;;;3.13;2.73;;;10.00;99.90;;;;;;5119619;28;20028;-84
2021/12/01 01:55:49;;;;;;;3.00;2.63;;;10.00;99.90;;;;;;5119827;28;20371;-83
2021/12/01 01:58:15;;;;;;;2.90;2.53;;;10.00;99.90;;;;;;5120195;28;20062;-83
2021/12/01 02:00:51;;;;;;;3.17;2.40;;;10.00;99.90;;;;;;5102408;28;20031;-84
2021/12/01 02:03:18;;;;;;;2.60;2.40;;;10.00;99.90;;;;;;5119004;28;20042;-82
2021/12/01 02:05:44;;;;;;;3.97;2.47;;;10.00;99.90;;;;;;5119733;27;20072;-83
2021/12/01 02:08:18;;;;;;;3.40;2.50;;;10.00;99.90;;;;;;5119815;28;20031;-84
2021/12/01 02:10:48;;;;;;;2.40;2.20;;;10.00;99.90;;;;;;5117911;28;20060;-82
2021/12/01 02:13:17;;;;;;;3.07;2.20;;;10.00;99.90;;;;;;5117406;28;20016;-82
2021/12/01 02:15:44;;;;;;;3.73;2.27;;;10.00;99.90;;;;;;5119004;28;20043;-82
2021/12/01 02:18:11;;;;;;;2.17;1.93;;;10.00;99.90;;;;;;5117440;28;20076;-82
2021/12/01 02:20:36;;;;;;;2.13;1.90;;;10.00;99.90;;;;;;5117695;28;20032;-83
2021/12/01 02:23:02;;;;;;;2.23;1.90;;;10.00;99.90;;;;;;5117779;28;20429;-83
2021/12/01 02:25:28;;;;;;;2.40;2.00;;;10.00;99.90;;;;;;5118138;28;20024;-84
2021/12/01 02:27:55;;;;;;;2.30;2.10;;;10.00;99.90;;;;;;5100480;28;20059;-81
2021/12/01 02:30:22;;;;;;;5.13;2.53;;;10.00;99.90;;;;;;5107534;28;20020;-82
2021/12/01 02:32:48;;;;;;;2.73;2.00;;;10.00;99.90;;;;;;5128925;28;20027;-81
2021/12/01 02:35:14;;;;;;;2.40;2.20;;;10.00;99.90;;;;;;5114973;28;20039;-82
2021/12/01 02:37:40;;;;;;;3.07;2.20;;;10.00;99.90;;;;;;5132379;28;20035;-83
2021/12/01 02:40:07;;;;;;;2.80;2.37;;;9.90;99.90;;;;;;5135328;28;20508;-83
2021/12/01 02:42:32;;;;;;;3.43;2.20;;;9.90;99.90;;;;;;5133720;28;20042;-84
2021/12/01 02:44:58;;;;;;;3.43;2.30;;;9.90;99.90;;;;;;5134953;28;20031;-83
2021/12/01 02:47:26;;;;;;;3.03;2.73;;;9.90;99.90;;;;;;5118936;28;20027;-81
2021/12/01 02:49:54;;;;;;;3.77;2.70;;;9.90;99.90;;;;;;5100541;28;20039;-84
2021/12/01 02:52:24;;;;;;;3.80;2.50;;;9.90;99.90;;;;;;5135620;28;20027;-83
2021/12/01 02:54:50;;;;;;;4.03;2.67;;;9.80;99.90;;;;;;5135890;28;20023;-84
2021/12/01 02:57:15;;;;;;;3.97;2.60;;;9.80;99.90;;;;;;5136170;28;20080;-83
2021/12/01 02:59:41;;;;;;;2.63;2.43;;;9.80;99.90;;;;;;5134677;28;20035;-82
2021/12/01 03:02:08;;;;;;;3.77;2.40;;;9.80;99.90;;;;;;5132702;28;20032;-83
2021/12/01 03:04:36;;;;;;;2.53;2.33;;;9.80;99.90;;;;;;5131266;28;20408;-82
2021/12/01 03:07:03;;;;;;;2.90;2.10;;;9.70;99.90;;;;;;5125228;28;20132;-84
2021/12/01 03:09:30;;;;;;;2.60;1.87;;;9.70;99.90;;;;;;5117731;28;20015;-84
2021/12/01 03:11:55;;;;;;;2.90;2.60;;;9.70;99.90;;;;;;5121548;28;20031;-84
2021/12/01 03:14:22;;;;;;;2.80;2.10;;;9.80;99.90;;;;;;5104981;28;20035;-84
2021/12/01 03:16:51;;;;;;;3.33;2.40;;;9.70;99.90;;;;;;5120928;28;20019;-84
2021/12/01 03:19:17;;;;;;;3.23;2.50;;;9.70;99.90;;;;;;5119000;28;20024;-84
2021/12/01 03:21:44;;;;;;;3.20;2.50;;;9.70;99.90;;;;;;5119095;28;20035;-81
2021/12/01 03:24:10;;;;;;;2.87;2.63;;;9.70;99.90;;;;;;5117371;28;20614;-84
2021/12/01 03:26:37;;;;;;;4.37;2.97;;;9.70;99.90;;;;;;5117457;28;20027;-82
2021/12/01 03:29:06;;;;;;;4.03;2.70;;;9.70;99.90;;;;;;5117839;28;20036;-83
2021/12/01 03:31:32;;;;;;;5.43;3.40;;;9.70;99.90;;;;;;5117862;28;20034;-84
2021/12/01 03:33:57;;;;;;;3.67;3.33;;;9.70;99.90;;;;;;5101220;28;20027;-83
2021/12/01 03:36:23;;;;;;;4.03;3.10;;;9.60;99.90;;;;;;5120660;28;20380;-82
2021/12/01 03:38:49;;;;;;;4.27;3.43;;;9.60;99.90;;;;;;5118953;28;20055;-84
2021/12/01 03:41:15;;;;;;;4.00;3.60;;;9.60;99.90;;;;;;5120972;28;20035;-83
2021/12/01 03:43:41;;;;;;;3.37;3.07;;;9.60;99.90;;;;;;5103021;28;20028;-83
2021/12/01 03:46:06;;;;;;;3.77;3.27;;;9.60;99.90;;;;;;5118755;28;20024;-83
2021/12/01 03:48:32;;;;;;;3.70;3.40;;;9.50;99.90;;;;;;5085447;28;20123;-85
2021/12/01 03:50:59;;;;;;;4.00;3.37;;;9.50;99.90;;;;;;5120327;28;20030;-84
2021/12/01 03:53:26;;;;;;;4.30;3.90;;;9.50;99.90;;;;;;5100600;28;20038;-84
2021/12/01 03:55:52;;;;;;;3.93;3.53;;;9.50;99.90;;;;;;5117269;28;20059;-84
2021/12/01 03:58:18;;;;;;;4.17;3.77;;;9.50;99.90;;;;;;5101703;28;20035;-82
2021/12/01 04:00:44;;;;;;;4.23;3.83;;;9.40;99.90;;;;;;5100248;28;20032;-83
2021/12/01 04:03:10;;;;;;;4.30;3.90;;;9.40;99.90;;;;;;5120454;28;20043;-84
2021/12/01 04:05:36;;;;;;;4.90;4.50;;;9.40;99.90;;;;;;5118427;28;20046;-83
2021/12/01 04:08:04;;;;;;;4.87;4.40;;;9.40;99.90;;;;;;5101453;28;20035;-83
2021/12/01 04:10:30;;;;;;;4.93;4.20;;;9.30;99.90;;;;;;5119446;28;20039;-82
2021/12/01 04:12:56;;;;;;;6.00;5.20;;;9.30;99.90;;;;;;5118876;28;20020;-82
2021/12/01 04:15:22;;;;;;;6.03;5.20;;;9.30;99.90;;;;;;5119324;28;20383;-83
2021/12/01 04:17:48;;;;;;;6.23;5.53;;;9.30;99.90;;;;;;5102246;28;20474;-83
2021/12/01 04:20:16;;;;;;;5.60;4.97;;;9.30;99.90;;;;;;5118109;28;20032;-84
2021/12/01 04:22:44;;;;;;;6.93;5.07;;;9.30;99.90;;;;;;5118684;28;20028;-84
2021/12/01 04:25:10;;;;;;;5.93;5.33;;;9.30;99.90;;;;;;5118135;28;20058;-83
2021/12/01 04:27:37;;;;;;;6.87;5.37;;;9.30;99.90;;;;;;5116750;28;20076;-83
2021/12/01 04:30:04;;;;;;;6.10;5.50;;;9.30;99.90;;;;;;5116877;28;20089;-82
2021/12/01 04:32:30;;;;;;;7.40;5.60;;;9.30;99.90;;;;;;5117660;28;20490;-83
2021/12/01 04:34:57;;;;;;;9.73;6.03;;;9.30;99.90;;;;;;5117012;28;20463;-83
2021/12/01 04:37:24;;;;;;;6.97;5.20;;;9.20;99.90;;;;;;5115866;28;20028;-82
2021/12/01 04:39:50;;;;;;;7.27;5.83;;;9.20;99.90;;;;;;5116593;28;20047;-84
2021/12/01 04:42:16;;;;;;;5.93;5.00;;;9.20;99.90;;;;;;5116016;28;20509;-83
2021/12/01 04:44:42;;;;;;;5.90;4.50;;;9.10;99.90;;;;;;5115856;27;20023;-83
2021/12/01 04:47:12;;;;;;;5.70;4.93;;;9.10;99.90;;;;;;5115573;28;20042;-83
2021/12/01 04:49:40;;;;;;;4.40;4.00;;;9.10;99.90;;;;;;5113733;28;20024;-81
2021/12/01 04:52:08;;;;;;;4.63;3.93;;;9.10;99.90;;;;;;5096999;28;20024;-80
2021/12/01 04:54:34;;;;;;;7.03;4.33;;;9.10;99.90;;;;;;5113303;28;20028;-80
2021/12/01 04:57:01;;;;;;;5.20;4.13;;;9.10;99.90;;;;;;5114924;28;20526;-83
2021/12/01 04:59:27;;;;;;;4.10;3.40;;;9.10;99.90;;;;;;5097524;28;20110;-82
2021/12/01 05:01:54;;;;;;;3.97;3.07;;;9.00;99.90;;;;;;5098336;28;20134;-81
2021/12/01 05:04:21;;;;;;;4.27;3.13;;;9.10;99.90;;;;;;5115105;28;20110;-82
2021/12/01 05:06:47;;;;;;;3.30;3.00;;;9.00;99.90;;;;;;5114783;28;20124;-82
2021/12/01 05:09:13;;;;;;;3.93;2.80;;;9.00;99.90;;;;;;5115428;28;20468;-82
2021/12/01 05:11:38;;;;;;;3.30;2.47;;;9.00;99.90;;;;;;5115437;28;20043;-83
2021/12/01 05:14:06;;;;;;;2.77;2.23;;;9.00;99.90;;;;;;5116247;28;20024;-83
2021/12/01 05:16:32;;;;;;;2.50;2.17;;;9.00;99.90;;;;;;5115503;28;20031;-83
2021/12/01 05:19:00;;;;;;;3.10;2.70;;;9.10;99.90;;;;;;5115642;28;20053;-83
2021/12/01 05:21:25;;;;;;;3.07;1.90;;;9.10;99.90;;;;;;5118634;28;20059;-81
2021/12/01 05:23:51;;;;;;;3.30;1.80;;;9.10;99.90;;;;;;5116773;28;20046;-84
2021/12/01 05:26:17;;;;;;;3.03;1.30;;;9.10;99.90;;;;;;5116091;28;20530;-81
2021/12/01 05:28:43;;;;;;;2.33;1.33;;;9.10;99.80;;;;;;5098297;28;20027;-83
2021/12/01 05:31:09;;;;;;;3.43;1.50;;;9.10;99.90;;;;;;5113450;28;20051;-82
2021/12/01 05:33:35;;;;;;;3.03;1.30;;;9.10;99.80;;;;;;5097029;28;20039;-82
2021/12/01 05:36:01;;;;;;;2.33;1.40;;;9.10;99.90;;;;;;5097757;28;20408;-81
2021/12/01 05:38:27;;;;;;;3.27;1.40;;;9.10;99.80;;;;;;5116473;28;20055;-81
2021/12/01 05:40:53;;;;;;;1.67;1.17;;;9.00;99.90;;;;;;5097594;28;20028;-82
2021/12/01 05:43:19;;;;;;;2.53;1.20;;;9.00;99.90;;;;;;5114808;28;20030;-83
2021/12/01 05:45:46;;;;;;;1.50;1.30;;;9.00;99.90;;;;;;5114138;28;20031;-83
2021/12/01 05:48:11;;;;;;;2.23;1.70;;;8.90;99.90;;;;;;5114231;28;20060;-83
2021/12/01 05:50:37;;;;;;;2.30;1.67;;;9.00;99.90;;;;;;5114379;28;20433;-83
2021/12/01 05:53:04;;;;;;;2.60;1.50;;;8.90;99.90;;;;;;5115219;28;20066;-82
2021/12/01 05:55:30;;;;;;;2.77;1.53;;;8.90;99.90;;;;;;5114217;28;20031;-82
2021/12/01 05:57:56;;;;;;;2.03;1.40;;;8.90;99.90;;;;;;5115584;28;20030;-83
2021/12/01 06:00:22;;;;;;;4.50;1.67;;;8.90;99.90;;;;;;5112797;28;20118;-83
2021/12/01 06:02:51;;;;;;;2.20;1.30;;;8.90;99.90;;;;;;5112384;28;20131;-83
2021/12/01 06:05:20;;;;;;;2.13;1.50;;;8.80;99.90;;;;;;5113063;28;20034;-84
2021/12/01 06:07:48;;;;;;;2.40;2.00;;;8.80;99.90;;;;;;5112881;28;20467;-83
2021/12/01 06:10:14;;;;;;;2.00;1.30;;;8.80;99.90;;;;;;5112468;28;20031;-82
2021/12/01 06:12:41;;;;;;;3.27;1.50;;;8.80;99.90;;;;;;5112383;28;20023;-82
2021/12/01 06:15:08;;;;;;;2.60;1.40;;;8.80;99.90;;;;;;5095878;28;20060;-81
2021/12/01 06:17:35;;;;;;;2.40;1.40;;;8.80;99.90;;;;;;5113891;28;20031;-80
2021/12/01 06:20:01;;;;;;;2.60;1.43;;;8.80;99.90;;;;;;5117061;28;20023;-81
2021/12/01 06:22:27;;;;;;;2.67;1.50;;;8.80;99.90;;;;;;5117982;28;20493;-80
2021/12/01 06:24:53;;;;;;;3.13;1.60;;;8.80;99.90;;;;;;5120497;28;20099;-82
2021/12/01 06:27:19;;;;;;;3.33;1.53;;;8.80;99.90;;;;;;5084261;28;20030;-81
2021/12/01 06:29:45;;;;;;;1.70;1.17;;;8.80;99.90;;;;;;5120326;28;20024;-83
2021/12/01 06:32:11;;;;;;;2.13;1.33;;;8.80;99.90;;;;;;5104594;28;20039;-80
2021/12/01 06:34:37;;;;;;;3.00;1.60;;;8.80;99.90;;;;;;5099234;28;20034;-81
2021/12/01 06:37:03;;;;;;;1.80;1.23;;;8.80;99.90;;;;;;5116523;28;20532;-81
2021/12/01 06:39:29;;;;;;;2.40;1.37;;;8.80;99.90;;;;;;5099184;28;20138;-81
2021/12/01 06:41:55;;;;;;;2.67;1.43;;;8.80;99.90;;;;;;5098845;28;20074;-83
2021/12/01 06:44:23;;;;;;;3.13;1.43;;;8.80;99.90;;;;;;5116639;28;20035;-83
2021/12/01 06:46:49;;;;;;;2.20;1.00;;;8.80;99.90;;;;;;5115937;28;20479;-83
2021/12/01 06:49:18;;;;;;;3.10;1.07;;;8.80;99.90;;;;;;5116334;28;20028;-84
2021/12/01 06:51:43;;;;;;;2.53;1.40;;;8.80;99.90;;;;;;5116335;28;20039;-82
2021/12/01 06:54:09;;;;;;;3.03;1.80;;;8.90;99.90;;;;;;5099074;28;20032;-84
2021/12/01 06:56:34;;;;;;;3.10;1.20;;;8.90;99.90;;;;;;5098984;28;20028;-84
2021/12/01 06:59:00;;;;;;;1.77;1.27;;;9.00;99.90;;;;;;5115427;28;20059;-83
2021/12/01 07:01:26;;;;;;;1.90;1.20;;;9.00;99.90;;;;;;5115963;28;20032;-83
2021/12/01 07:03:52;;;;;;;2.63;1.33;;;9.00;99.90;;;;;;5115536;28;20523;-83
2021/12/01 07:06:17;;;;;;;2.70;1.90;;;9.00;99.90;;;;;;5116056;28;20111;-82
2021/12/01 07:08:43;;;;;;;2.73;1.30;;;9.00;99.90;;;;;;5081652;28;20445;-81
2021/12/01 07:11:09;;;;;;;1.93;1.73;;;9.00;99.90;;;;;;5098305;28;20471;-83
2021/12/01 07:13:35;;;;;;;2.40;1.80;;;9.00;99.90;;;;;;5117412;28;20130;-84
2021/12/01 07:16:02;;;;;;;2.90;1.60;;;9.00;99.90;;;;;;5098942;28;20020;-82
2021/12/01 07:18:28;;;;;;;1.97;1.53;;;9.00;99.90;;;;;;5098306;28;20088;-83
2021/12/01 07:20:54;;;;;;;2.00;1.70;;;9.00;99.90;;;;;;5098378;28;20031;-82
2021/12/01 07:23:19;;;;;;;2.20;1.60;;;9.00;99.90;;;;;;5097619;28;20038;-83
2021/12/01 07:25:45;;;;;;;2.87;1.77;;;9.00;99.90;;;;;;5115802;28;20114;-82
2021/12/01 07:28:11;;;;;;;2.83;1.60;;;9.00;99.90;;;;;;5100441;28;20032;-83
2021/12/01 07:30:39;;;;;;;3.07;1.57;;;9.10;99.90;;;;;;5099881;28;20035;-83
2021/12/01 07:33:05;;;;;;;2.80;2.03;;;9.00;99.90;;;;;;5097963;28;20085;-83
2021/12/01 07:35:31;;;;;;;2.90;2.40;;;9.10;99.90;;;;;;5097589;28;20035;-83
2021/12/01 07:37:57;;;;;;;3.17;2.20;;;9.10;99.90;;;;;;5114309;28;20361;-82
2021/12/01 07:40:23;;;;;;;2.73;1.50;;;9.10;99.90;;;;;;5081035;28;20077;-82
2021/12/01 07:42:48;;;;;;;3.87;2.53;;;9.10;99.90;;;;;;5114189;28;20438;-82
2021/12/01 07:45:14;;;;;;;8.00;3.30;;;9.10;99.90;;;;;;5097403;28;20077;-81
2021/12/01 07:47:40;;;;;;;2.43;2.20;;;9.20;99.90;;;;;;5113571;28;20471;-81
2021/12/01 07:50:08;;;;;;;2.53;2.10;;;9.20;99.90;;;;;;5113817;28;20592;-81
2021/12/01 07:52:35;;;;;;;4.07;2.90;;;9.10;99.90;;;;;;5113866;28;20063;-81
2021/12/01 07:55:01;;;;;;;2.40;2.20;;;9.10;99.90;;;;;;5114706;28;20447;-81
2021/12/01 07:57:26;;;;;;;3.13;1.63;;;9.20;99.90;;;;;;5114755;28;20110;-81
2021/12/01 07:59:52;;;;;;;4.40;3.03;;;9.20;99.90;;;;;;5113199;28;20024;-81
2021/12/01 08:02:18;;;;;;;4.43;2.70;;;9.20;99.90;;;;;;5096515;28;20067;-82
2021/12/01 08:04:43;;;;;;;4.97;2.97;;;9.20;99.90;;;;;;5114039;28;20028;-82
2021/12/01 08:07:09;;;;;;;5.10;3.63;;;9.20;99.90;;;;;;5113466;28;20027;-82
2021/12/01 08:09:38;;;;;;;5.50;3.13;;;9.20;99.90;;;;;;5079668;28;20467;-81
2021/12/01 08:12:07;;;;;;;2.93;2.17;;;9.30;99.90;;;;;;5096143;28;20381;-81
2021/12/01 08:14:34;;;;;;;4.93;4.07;;;9.30;99.90;;;;;;5113651;28;20024;-81
2021/12/01 08:17:00;;;;;;;5.10;3.97;;;9.30;99.90;;;;;;5096646;28;20028;-81
2021/12/01 08:19:27;;;;;;;2.90;2.13;;;9.30;99.90;;;;;;5114704;27;20027;-82
2021/12/01 08:21:52;;;;;;;4.53;3.20;;;9.30;99.90;;;;;;5114939;28;20050;-80
2021/12/01 08:24:19;;;;;;;3.10;2.00;;;9.30;99.90;;;;;;5097298;28;20468;-82
2021/12/01 08:26:46;;;;;;;2.63;1.70;;;9.30;99.90;;;;;;5114541;28;20027;-82
2021/12/01 08:29:12;;;;;;;2.40;1.80;;;9.30;99.90;;;;;;5080283;28;20066;-82
2021/12/01 08:31:40;;;;;;;2.73;2.27;;;9.40;99.90;;;;;;5113498;28;20150;-81
2021/12/01 08:34:07;;;;;;;4.30;2.30;;;9.30;99.90;;;;;;5079690;28;20031;-81
2021/12/01 08:36:34;;;;;;;4.00;3.23;;;9.30;99.90;;;;;;5115599;28;20027;-80
2021/12/01 08:39:00;;;;;;;4.00;2.47;;;9.30;99.90;;;;;;5113794;28;20372;-82
2021/12/01 08:41:26;;;;;;;2.60;1.90;;;9.40;99.90;;;;;;5080519;28;20020;-80
2021/12/01 08:44:01;;;;;;;3.03;2.53;;;9.40;99.90;;;;;;5115750;28;20055;-83
2021/12/01 08:46:27;;;;;;;5.57;3.67;;;9.40;99.90;;;;;;5098785;28;20031;-80
2021/12/01 08:48:52;;;;;;;1.90;1.30;;;9.40;99.90;;;;;;5100232;28;20028;-81
2021/12/01 08:51:18;;;;;;;3.53;2.83;;;9.40;99.90;;;;;;5122353;28;20027;-81
2021/12/01 08:53:44;;;;;;;3.90;2.63;;;9.40;99.90;;;;;;5125762;28;20032;-81
2021/12/01 08:56:11;;;;;;;1.33;0.83;;;9.50;99.90;;;;;;5116228;28;20107;-81
2021/12/01 08:58:37;;;;;;;2.83;2.00;;;9.50;99.90;;;;;;5120417;28;20028;-81
2021/12/01 09:01:03;;;;;;;1.60;1.03;;;9.60;99.90;;;;;;5116534;28;20138;-81
2021/12/01 09:03:29;;;;;;;1.37;0.80;;;9.70;99.90;;;;;;5113606;28;20050;-81
2021/12/01 09:05:55;;;;;;;1.10;0.60;;;9.70;99.90;;;;;;5095569;28;20028;-81
2021/12/01 09:08:22;;;;;;;2.03;1.17;;;9.80;99.90;;;;;;5114826;28;20024;-80
2021/12/01 09:10:52;;;;;;;1.30;0.87;;;9.80;99.90;;;;;;5096175;28;20423;-82
2021/12/01 09:13:19;;;;;;;1.43;0.87;;;9.80;99.90;;;;;;5113624;28;20055;-81
2021/12/01 09:15:45;;;;;;;1.30;0.70;;;9.80;99.90;;;;;;5113083;28;20043;-81
2021/12/01 09:18:10;;;;;;;2.63;0.80;;;9.80;99.90;;;;;;5095818;28;20032;-81
2021/12/01 09:20:36;;;;;;;2.17;1.40;;;9.90;99.90;;;;;;5112937;28;20023;-81
2021/12/01 09:23:03;;;;;;;1.47;1.00;;;9.90;99.90;;;;;;5113631;28;20036;-81
2021/12/01 09:25:29;;;;;;;1.40;0.70;;;10.00;99.90;;;;;;5112929;28;20062;-81
2021/12/01 09:27:55;;;;;;;2.37;1.50;;;9.90;99.90;;;;;;5112760;28;20122;-80
2021/12/01 09:30:21;;;;;;;2.67;1.93;;;10.00;99.90;;;;;;5114654;28;20094;-80
2021/12/01 09:32:46;;;;;;;1.23;0.73;;;10.00;99.90;;;;;;5095541;28;20063;-80
2021/12/01 09:35:14;;;;;;;2.80;1.80;;;10.00;99.90;;;;;;5096276;28;20027;-82
2021/12/01 09:37:40;;;;;;;1.50;0.97;;;10.00;99.90;;;;;;5112466;28;20383;-81
2021/12/01 09:40:13;;;;;;;1.97;0.50;;;9.90;99.90;;;;;;5111922;28;20079;-79
2021/12/01 09:42:44;;;;;;;1.15;0.65;;;9.90;99.90;;;;;;5113808;28;20032;-81
2021/12/01 09:45:11;;;;;;;2.07;1.20;;;9.90;99.90;;;;;;5112422;28;20049;-81
2021/12/01 09:47:37;;;;;;;1.07;0.70;;;9.90;99.90;;;;;;5095774;28;20038;-80
2021/12/01 09:50:04;;;;;;;2.40;0.90;;;9.90;99.90;;;;;;5113165;28;20043;-79
2021/12/01 09:52:30;;;;;;;2.20;0.90;;;9.90;99.90;;;;;;5115193;28;20028;-80
2021/12/01 09:54:56;;;;;;;2.60;1.60;;;9.90;99.90;;;;;;5117133;28;20031;-82
2021/12/01 09:57:22;;;;;;;1.60;0.93;;;9.90;99.90;;;;;;5099736;28;20035;-80
2021/12/01 09:59:47;;;;;;;2.10;0.60;;;9.90;99.90;;;;;;5099385;28;20031;-81
2021/12/01 10:02:13;;;;;;;1.97;0.50;;;10.00;99.90;;;;;;5116661;28;20115;-79
2021/12/01 10:04:39;;;;;;;1.63;0.93;;;9.90;99.90;;;;;;5117921;28;20020;-80
2021/12/01 10:07:17;;;;;;;2.37;0.90;;;9.90;99.90;;;;;;5116329;28;20477;-80
2021/12/01 10:09:45;;;;;;;1.77;0.93;;;10.00;99.90;;;;;;5116590;28;20073;-80
2021/12/01 10:12:11;;;;;;;2.40;1.00;;;10.00;99.90;;;;;;5116099;28;20020;-81
2021/12/01 10:14:37;;;;;;;1.00;0.50;;;10.10;99.90;;;;;;5116820;28;20458;-81
2021/12/01 10:17:03;;;;;;;2.47;0.60;;;10.10;99.90;;;;;;5082471;28;20114;-82
2021/12/01 10:19:29;;;;;;;2.20;0.80;;;10.10;99.90;;;;;;5116075;28;20065;-80
2021/12/01 10:21:55;;;;;;;1.73;1.10;;;10.10;99.90;;;;;;5115994;28;20078;-80
2021/12/01 10:24:31;;;;;;;1.47;0.90;;;10.10;99.90;;;;;;5098952;28;20458;-79
2021/12/01 10:27:00;;;;;;;1.30;0.80;;;10.10;99.90;;;;;;5117184;28;20051;-80
2021/12/01 10:29:34;;;;;;;1.47;0.93;;;10.10;99.90;;;;;;5116071;28;20028;-80
2021/12/01 10:32:01;;;;;;;2.00;1.23;;;10.10;99.90;;;;;;5116545;28;20110;-79
2021/12/01 10:34:36;;;;;;;1.50;0.93;;;10.10;99.90;;;;;;5116256;28;20027;-80
2021/12/01 10:37:14;;;;;;;2.20;1.20;;;10.10;99.90;;;;;;5117293;28;20023;-80
2021/12/01 10:39:43;;;;;;;1.87;1.27;;;10.20;99.90;;;;;;5117003;28;20104;-81
2021/12/01 10:42:15;;;;;;;2.90;1.50;;;10.30;99.90;;;;;;5116828;28;20046;-80
2021/12/01 10:45:06;;;;;;;2.85;1.38;;;10.40;99.90;;;;;;5115706;28;20062;-81
2021/12/01 10:47:40;;;;;;;2.77;1.87;;;10.40;99.90;;;;;;5115443;28;20035;-80
2021/12/01 10:50:07;;;;;;;1.40;1.00;;;10.50;99.90;;;;;;5115709;28;20019;-80
2021/12/01 10:52:38;;;;;;;1.80;1.43;;;10.50;99.90;;;;;;5116530;28;20150;-80
2021/12/01 10:55:14;;;;;;;2.70;1.13;;;10.40;99.90;;;;;;5117147;28;20099;-79
2021/12/01 10:57:47;;;;;;;2.10;0.70;;;10.40;99.90;;;;;;5116922;28;20085;-80
2021/12/01 11:00:21;;;;;;;2.53;1.50;;;10.30;99.90;;;;;;5115559;28;20016;-78
2021/12/01 11:02:47;;;;;;;2.57;1.10;;;10.30;99.90;;;;;;5116994;28;20146;-81
2021/12/01 11:05:31;;;;;;;9.20;1.43;;;10.30;99.90;;;;;;5104168;28;20464;-81
2021/12/01 11:08:09;;;;;;;2.80;0.73;;;10.30;99.90;;;;;;5124237;28;20405;-84
2021/12/01 11:10:35;;;;;;;1.67;0.60;;;10.30;99.90;;;;;;5125268;28;20027;-81
2021/12/01 11:13:03;;;;;;;2.63;0.80;;;10.20;99.90;;;;;;5126144;28;20027;-82
2021/12/01 11:15:41;;;;;;;1.93;0.70;;;10.20;99.80;;;;;;5125087;28;20031;-80
2021/12/01 11:18:09;;;;;;;3.63;0.57;;;10.10;99.50;;;;;;5126901;28;20114;-81
2021/12/01 11:20:40;;;;;;;4.73;0.60;;;10.10;99.50;;;;;;5127433;28;20093;-80
2021/12/01 11:23:09;;;;;;;5.17;0.50;;;10.20;99.40;;;;;;5127524;28;20036;-80
2021/12/01 11:25:38;;;;;;;4.50;0.70;;;10.30;99.30;;;;;;5118191;28;20368;-79
2021/12/01 11:28:05;;;;;;;4.13;0.80;;;10.30;99.00;;;;;;5116593;28;20158;-81
2021/12/01 11:30:31;;;;;;;4.20;0.70;;;10.40;98.90;;;;;;5116196;28;20024;-79
2021/12/01 11:32:57;;;;;;;4.03;0.80;;;10.40;98.80;;;;;;5118017;28;20055;-80
2021/12/01 11:35:23;;;;;;;8.43;0.77;;;10.40;98.50;;;;;;5099243;28;20027;-80
2021/12/01 11:37:55;;;;;;;7.37;0.60;;;10.30;98.50;;;;;;5115943;28;20023;-80
2021/12/01 11:40:27;;;;;;;5.97;0.80;;;10.30;98.40;;;;;;5098918;28;20415;-79
2021/12/01 11:42:55;;;;;;;8.07;0.80;;;10.30;98.10;;;;;;5114884;28;20122;-81
2021/12/01 11:45:20;;;;;;;4.73;0.70;;;10.30;98.00;;;;;;5115316;28;20070;-80
2021/12/01 11:47:47;;;;;;;3.83;0.50;;;10.20;97.70;;;;;;5098824;28;20467;-80
2021/12/01 11:50:33;;;;;;;5.43;0.70;;;10.30;97.70;;;;;;5114845;28;20440;-80
2021/12/01 11:53:32;;;;;;;4.97;0.70;;;10.30;97.70;;;;;;5114951;28;20065;-81
2021/12/01 11:56:01;;;;;;;6.27;0.80;;;10.30;97.70;;;;;;5114741;28;20103;-81
2021/12/01 11:58:49;;;;;;;5.40;0.60;;;10.30;97.30;;;;;;5114844;28;20050;-81
2021/12/01 12:01:21;;;;;;;4.57;0.60;;;10.30;97.10;;;;;;5116595;28;20524;-80
2021/12/01 12:04:01;;;;;;;4.13;0.60;;;10.30;97.30;;;;;;5115558;28;20340;-81
2021/12/01 12:06:33;;;;;;;4.37;0.53;;;10.20;97.30;;;;;;5114294;28;20024;-80
2021/12/01 12:09:13;;;;;;;4.50;0.60;;;10.20;97.30;;;;;;5114087;28;20031;-81
2021/12/01 12:11:42;;;;;;;4.50;0.60;;;10.20;97.50;;;;;;5114679;28;20034;-82
2021/12/01 12:14:23;;;;;;;6.73;0.73;;;10.20;97.50;;;;;;5115914;28;20024;-82
2021/12/01 12:17:04;;;;;;;6.23;0.60;;;10.20;97.60;;;;;;5114258;28;20043;-81
2021/12/01 12:20:03;;;;;;;3.57;0.60;;;10.20;97.40;;;;;;5115214;28;20059;-81
2021/12/01 12:22:37;;;;;;;3.80;0.50;;;10.20;97.30;;;;;;5115196;28;20053;-80
2021/12/01 12:25:28;;;;;;;5.80;0.70;;;10.20;97.20;;;;;;5113814;28;20430;-81
2021/12/01 12:27:53;;;;;;;7.07;0.90;;;10.20;97.20;;;;;;5096966;28;20031;-81
2021/12/01 12:30:34;;;;;;;5.43;0.60;;;10.20;97.30;;;;;;5113853;28;20020;-81
2021/12/01 12:33:18;;;;;;;8.30;1.00;;;10.30;97.20;;;;;;5115010;28;20095;-81
2021/12/01 12:35:50;;;;;;;3.83;0.40;;;10.40;97.10;;;;;;5113258;28;20027;-82
2021/12/01 12:38:17;;;;;;;2.43;0.30;;;10.40;96.70;;;;;;5114691;28;20047;-80
2021/12/01 12:40:44;;;;;;;7.20;0.77;;;10.40;96.60;;;;;;5115069;28;20245;-81
2021/12/01 12:43:11;;;;;;;3.93;0.37;;;10.40;96.80;;;;;;5079833;28;20494;-82
2021/12/01 12:45:40;;;;;;;2.63;0.40;;;10.40;96.80;;;;;;5113609;28;20024;-80
2021/12/01 12:48:30;;;;;;;4.27;0.40;;;10.30;96.70;;;;;;5114653;28;20054;-81
2021/12/01 12:51:14;;;;;;;4.30;0.40;;;10.20;96.20;;;;;;5113609;28;20023;-82
2021/12/01 12:54:15;;;;;;;3.97;0.50;;;10.10;96.10;;;;;;5114558;28;20041;-82
2021/12/01 12:56:44;;;;;;;4.07;0.50;;;10.10;96.20;;;;;;5060749;28;20375;-79
2021/12/01 12:59:20;;;;;;;4.43;0.43;;;10.20;96.30;;;;;;5113628;28;20055;-81
2021/12/01 13:01:52;;;;;;;6.63;0.70;;;10.10;96.00;;;;;;5116209;28;20061;-81
2021/12/01 13:04:51;;;;;;;5.67;0.53;;;10.10;96.00;;;;;;5134811;28;20007;-81